Latest Weather Observations for Orange Airport

IDN60801

Issued at 7:33 pm EDT Saturday 16 December 2017 (issued every 30 minutes, with the page automatically refreshed every 10 minutes)

About weather observations | Map of weather stations | Latest weather observations for NSW | Other Formats
Station Details ID: 063303 Name: ORANGE AIRPORT AWS Lat: -33.38 Lon: 149.13 Height: 944.65 m
Data from the previous 72 hours. | See also: Recent months at Orange Airport
Date/Time
EDT
Temp
°C
App
Temp
°C
Dew
Point
°C
Rel
Hum
%
Delta-T
°C
Wind Press
QNH
hPa
Press
MSL
hPa
Rain since
9am
mm
Dir  Spd
km/h
Gust
km/h
Spd
kts
Gust
kts
16/07:30pm 25.5 25.0 12.0 43 8.0 S 6 7 3 4 1016.7 1012.8 0.0
16/07:00pm 27.4 26.9 10.6 35 9.9 S 4 7 2 4 1016.4 1012.4 0.0
16/06:30pm 28.0 27.7 12.8 39 9.3 WSW 6 9 3 5 1016.2 1012.2 0.0
16/06:00pm 29.4 27.4 10.0 30 11.4 WSW 11 15 6 8 1016.0 1012.0 0.0
16/05:30pm 28.6 26.9 9.8 31 11.0 WSW 9 19 5 10 1016.0 1012.0 0.0
16/05:00pm 29.9 26.3 9.9 29 11.7 SW 19 24 10 13 1016.1 1012.1 0.0
16/04:30pm 30.7 27.4 9.6 27 12.4 WSW 17 28 9 15 1016.4 1012.4 0.0
16/04:00pm 30.3 26.9 9.2 27 12.3 W 17 26 9 14 1016.7 1012.8 0.0
16/03:30pm 28.5 25.5 9.2 30 11.1 SW 15 22 8 12 1017.1 1013.1 0.0
16/03:00pm 29.8 28.3 10.4 30 11.5 WNW 9 19 5 10 1017.3 1013.3 0.0
16/02:30pm 28.0 25.4 9.3 31 10.8 WSW 13 22 7 12 1017.5 1013.6 0.0
16/02:00pm 29.4 25.8 10.5 31 11.2 WSW 20 30 11 16 1017.7 1013.8 0.0
16/01:30pm 29.4 25.7 10.0 30 11.4 WSW 20 30 11 16 1017.9 1014.0 0.0
16/01:00pm 28.7 24.7 8.9 29 11.4 WSW 20 30 11 16 1018.2 1014.2 0.0
16/12:30pm 27.8 23.9 9.6 32 10.5 SW 20 30 11 16 1018.4 1014.5 0.0
16/12:00pm 28.2 26.5 9.9 32 10.7 WNW 9 17 5 9 1018.4 1014.5 0.0
16/11:30am 27.8 25.2 13.3 40 8.9 NNW 19 28 10 15 1018.7 1014.8 0.0
16/11:00am 27.1 25.2 14.1 44 8.1 NW 17 26 9 14 1018.8 1014.9 0.0
16/10:30am 26.7 25.0 15.7 51 7.0 NNW 19 28 10 15 1018.8 1014.9 0.0
16/10:00am 25.8 24.4 14.6 50 7.0 N 15 20 8 11 1018.9 1015.0 0.0
16/09:30am 24.4 23.0 13.3 50 6.7 N 13 19 7 10 1019.0 1015.1 0.0
16/09:00am 23.6 21.8 13.2 52 6.3 N 15 20 8 11 1018.9 1015.0 1.0
16/08:30am 23.4 22.5 13.6 54 5.9 NNE 11 15 6 8 1018.6 1014.7 1.0
16/08:00am 22.1 20.1 12.6 55 5.6 NNE 15 19 8 10 1018.4 1014.5 1.0
16/07:30am 21.1 19.7 12.3 57 5.2 NE 11 17 6 9 1018.1 1014.1 1.0
16/07:00am 20.0 19.1 12.7 63 4.3 NNE 9 13 5 7 1017.7 1013.8 1.0
16/06:30am 18.9 17.6 12.6 67 3.7 NE 11 15 6 8 1017.3 1013.3 1.0
16/06:00am 16.9 16.1 11.8 72 2.9 NNE 7 13 4 7 1017.1 1013.1 1.0
16/05:30am 15.1 14.8 11.5 79 2.0 W 4 9 2 5 1017.1 1013.1 1.0
16/05:00am 15.0 15.4 11.4 79 2.0 CALM 0 0 0 0 1016.8 1012.9 1.0
16/04:30am 15.6 16.2 11.8 78 2.2 CALM 0 0 0 0 1016.6 1012.7 1.0
16/04:00am 16.2 15.6 11.6 74 2.6 N 6 9 3 5 1016.4 1012.4 1.0
16/03:30am 17.4 16.5 12.7 74 2.7 NNE 9 11 5 6 1016.4 1012.4 1.0
16/03:00am 17.0 16.7 13.3 79 2.2 N 7 9 4 5 1016.6 1012.7 1.0
16/02:30am 16.2 15.5 13.1 82 1.8 NNW 9 11 5 6 1016.7 1012.8 1.0
16/02:00am 16.9 16.6 13.2 79 2.2 N 7 9 4 5 1016.7 1012.8 1.0
16/01:30am 17.6 16.9 13.3 76 2.5 NE 9 13 5 7 1016.8 1012.9 1.0
16/01:00am 17.0 17.0 13.7 81 2.0 NNE 6 7 3 4 1017.5 1013.6 1.0
16/12:30am 17.2 16.2 13.5 79 2.2 NNE 11 13 6 7 1017.4 1013.5 1.0
16/12:00am 17.0 16.1 13.7 81 2.0 NE 11 15 6 8 1017.4 1013.5 1.0
 
Date/Time
EDT
Temp
°C
App
Temp
°C
Dew
Point
°C
Rel
Hum
%
Delta-T
°C
Wind Press
QNH
hPa
Press
MSL
hPa
Rain since
9am
mm
Dir  Spd
km/h
Gust
km/h
Spd
kts
Gust
kts
15/11:30pm 16.7 16.9 14.3 86 1.4 NNW 6 9 3 5 1018.1 1014.1 1.0
15/11:00pm 17.1 17.0 14.0 82 1.8 SE 7 11 4 6 1017.5 1013.6 1.0
15/10:30pm 17.2 15.9 13.7 80 2.1 ENE 13 15 7 8 1017.4 1013.5 1.0
15/10:00pm 17.0 16.5 13.9 82 1.8 ENE 9 11 5 6 1017.6 1013.7 1.0
15/09:30pm 17.1 16.6 13.8 81 2.0 NE 9 15 5 8 1017.6 1013.7 1.0
15/09:00pm 17.1 17.1 13.6 80 2.1 SE 6 9 3 5 1017.1 1013.1 1.0
15/08:30pm 17.8 15.7 13.7 77 2.4 S 17 19 9 10 1016.6 1012.7 1.0
15/08:00pm 18.5 15.8 12.9 70 3.3 SSW 19 28 10 15 1016.3 1012.3 1.0
15/07:30pm 19.0 15.8 13.0 68 3.5 SW 22 35 12 19 1016.1 1012.1 1.0
15/07:00pm 19.7 16.8 12.9 65 4.0 SW 20 28 11 15 1016.5 1012.6 1.0
15/06:30pm 20.6 18.9 12.6 60 4.7 SW 13 19 7 10 1016.2 1012.2 1.0
15/06:00pm 20.7 20.0 13.2 62 4.5 W 9 11 5 6 1016.1 1012.1 1.0
15/05:30pm 21.0 19.8 12.9 60 4.8 W 11 15 6 8 1015.9 1011.9 1.0
15/05:00pm 21.7 19.4 13.1 58 5.1 WSW 17 24 9 13 1015.9 1011.9 1.0
15/04:30pm 22.1 21.6 15.0 64 4.4 SSW 11 15 6 8 1015.5 1011.6 1.0
15/04:00pm 22.4 23.2 13.7 58 5.3 NW 2 7 1 4 1015.6 1011.7 1.0
15/03:30pm 21.8 20.9 14.9 65 4.3 N 13 17 7 9 1015.9 1011.9 1.0
15/03:00pm 22.3 21.4 14.9 63 4.6 ENE 13 19 7 10 1015.6 1011.7 1.0
15/02:30pm 21.7 19.9 14.4 63 4.5 NE 17 22 9 12 1016.0 1012.0 1.0
15/02:00pm 21.4 20.2 16.1 72 3.3 NE 17 22 9 12 1016.3 1012.3 1.0
15/01:30pm 20.4 20.6 15.8 75 2.9 NE 9 11 5 6 1017.2 1013.2 0.6
15/01:00pm 22.1 22.4 14.5 62 4.7 ENE 6 13 3 7 1017.2 1013.2 0.4
15/12:30pm 21.8 21.1 15.4 67 4.0 E 13 17 7 9 1017.0 1013.0 0.4
15/12:00pm 20.8 20.0 15.1 70 3.5 E 13 17 7 9 1017.2 1013.2 0.4
15/11:30am 20.6 19.6 14.7 69 3.6 SSE 13 17 7 9 1017.4 1013.5 0.4
15/11:00am 19.5 18.3 15.0 75 2.7 SE 15 17 8 9 1017.2 1013.2 0.4
15/10:30am 21.2 19.3 12.9 59 4.9 SSE 15 20 8 11 1017.6 1013.7 0.0
15/10:00am 21.4 19.7 12.3 56 5.4 S 13 17 7 9 1017.6 1013.7 0.0
15/09:30am 20.7 18.9 12.1 58 5.0 SSE 13 15 7 8 1017.4 1013.5 0.0
15/09:00am 20.9 18.6 11.8 56 5.3 S 15 20 8 11 1017.0 1013.0 0.0
15/08:30am 21.6 18.9 11.6 53 5.8 SSW 17 24 9 13 1016.7 1012.8 0.0
15/08:00am 21.6 18.9 11.6 53 5.8 S 17 20 9 11 1016.2 1012.2 0.0
15/07:30am 20.7 18.7 11.6 56 5.3 S 13 17 7 9 1015.9 1011.9 0.0
15/07:00am 20.2 18.2 11.4 57 5.1 SSW 13 17 7 9 1015.6 1011.7 0.0
15/06:30am 19.8 17.0 11.3 58 4.9 SW 17 20 9 11 1015.3 1011.3 0.0
15/06:00am 19.8 17.7 11.0 57 5.0 SSW 13 15 7 8 1015.2 1011.2 0.0
15/05:30am 19.4 17.3 11.2 59 4.7 SSW 13 13 7 7 1014.9 1010.9 0.0
15/05:00am 19.5 19.2 11.5 60 4.6 SSW 4 9 2 5 1014.4 1010.4 0.0
15/04:30am 19.8 17.8 11.6 59 4.7 SSW 13 17 7 9 1013.9 1009.9 0.0
15/04:00am 20.2 18.3 10.6 54 5.5 SW 11 15 6 8 1013.9 1009.9 0.0
15/03:30am 20.5 19.0 10.6 53 5.6 SSW 9 13 5 7 1013.8 1009.8 0.0
15/03:00am 20.9 19.0 10.4 51 6.0 SSW 11 13 6 7 1013.8 1009.8 0.0
15/02:30am 21.4 19.1 10.3 49 6.3 SSW 13 17 7 9 1013.8 1009.8 0.0
15/02:00am 22.0 19.3 10.2 47 6.7 SSW 15 20 8 11 1014.0 1010.0 0.0
15/01:30am 22.2 19.1 10.4 47 6.8 SW 17 20 9 11 1014.3 1010.3 0.0
15/01:00am 23.2 19.4 9.9 43 7.6 SW 20 30 11 16 1014.4 1010.4 0.0
15/12:30am 23.7 20.3 9.3 40 8.1 SW 17 22 9 12 1014.3 1010.3 0.0
15/12:00am 23.8 20.5 9.4 40 8.2 WSW 17 19 9 10 1014.4 1010.4 0.0
 
Date/Time
EDT
Temp
°C
App
Temp
°C
Dew
Point
°C
Rel
Hum
%
Delta-T
°C
Wind Press
QNH
hPa
Press
MSL
hPa
Rain since
9am
mm
Dir  Spd
km/h
Gust
km/h
Spd
kts
Gust
kts
14/11:30pm 24.4 21.0 9.2 38 8.6 W 17 20 9 11 1014.5 1010.6 0.0
14/11:00pm 24.7 21.3 9.0 37 8.9 W 17 24 9 13 1014.5 1010.6 0.0
14/10:30pm 24.4 21.0 9.2 38 8.6 W 17 26 9 14 1014.4 1010.4 0.0
14/10:00pm 24.6 20.8 9.0 37 8.8 W 19 24 10 13 1014.8 1010.8 0.0
14/09:30pm 23.8 20.2 10.5 43 7.7 WSW 20 28 11 15 1014.4 1010.4 0.0
14/09:00pm 22.1 20.8 11.2 50 6.3 W 9 9 5 5 1014.5 1010.6 0.0
14/08:30pm 22.5 20.0 10.9 48 6.7 WSW 15 20 8 11 1014.4 1010.4 0.0
14/08:00pm 23.2 20.0 11.3 47 6.9 SW 19 26 10 14 1014.1 1010.1 0.0
14/07:30pm 23.7 20.0 11.4 46 7.2 SW 22 32 12 17 1014.1 1010.1 0.0
14/07:00pm 24.8 20.5 10.7 41 8.2 SW 24 35 13 19 1013.9 1009.9 0.0
14/06:44pm 25.9 21.7 9.7 36 9.3 WSW 22 43 12 23 1013.4 1009.4 0.0
14/06:30pm 27.6 24.9 10.3 34 10.1 NW 15 19 8 10 1012.8 1008.8 0.0
14/06:00pm 29.2 25.4 9.9 30 11.3 NNW 20 30 11 16 1012.5 1008.4 0.0
14/05:30pm 29.6 24.9 9.2 28 11.8 NNW 24 33 13 18 1012.5 1008.4 0.0
14/05:00pm 30.2 24.9 9.7 28 12.0 NW 28 37 15 20 1012.6 1008.5 0.0
14/04:30pm 30.4 26.0 10.4 29 11.9 NNW 24 35 13 19 1012.9 1008.9 0.0
14/04:00pm 29.6 24.3 9.7 29 11.7 NW 28 43 15 23 1013.1 1009.1 0.0
14/03:30pm 29.4 23.4 8.5 27 12.0 NW 30 43 16 23 1013.4 1009.4 0.0
14/03:00pm 28.3 22.3 8.6 29 11.3 NNW 30 41 16 22 1013.7 1009.7 0.0
14/02:30pm 30.9 25.8 11.8 31 11.6 NNW 30 44 16 24 1013.7 1009.7 0.0
14/02:00pm 30.0 24.6 11.0 31 11.4 NW 30 43 16 23 1014.0 1010.0 0.0
14/01:30pm 29.9 23.5 9.4 28 12.0 NNW 33 46 18 25 1014.2 1010.2 0.0
14/01:00pm 28.7 22.9 10.8 33 10.6 NNW 32 43 17 23 1014.4 1010.4 0.0
14/12:30pm 28.7 22.1 11.3 34 10.4 NW 37 48 20 26 1014.5 1010.6 0.0
14/12:10pm 28.1 22.0 10.3 33 10.4 NNW 33 52 18 28 1014.8 1010.8 0.0
14/12:00pm 27.8 21.6 10.1 33 10.3 NNW 33 48 18 26 1014.8 1010.8 0.0
14/11:30am 27.5 20.8 11.1 36 9.7 NNW 37 56 20 30 1015.1 1011.1 0.0
14/11:28am 27.1 20.1 9.9 34 10.0 NNW 37 56 20 30 1015.1 1011.1 0.0
14/11:00am 26.6 20.9 11.1 38 9.2 NNW 32 43 17 23 1015.2 1011.2 0.0
14/10:30am 25.7 18.9 10.7 39 8.8 NNW 37 50 20 27 1015.2 1011.2 0.0
14/10:02am 25.6 18.7 10.2 38 8.9 NNW 37 56 20 30 1015.2 1011.2 0.0
14/10:00am 25.5 18.1 9.7 37 9.1 NNW 39 56 21 30 1015.2 1011.2 0.0
14/09:56am 25.0 17.7 8.9 36 9.1 NNW 37 56 20 30 1015.2 1011.2 0.0
14/09:30am 24.8 18.1 9.5 38 8.7 NNW 35 48 19 26 1015.2 1011.2 0.0
14/09:00am 24.5 17.4 9.6 39 8.5 NNW 37 46 20 25 1015.1 1011.1 0.0
14/08:30am 23.5 17.1 8.4 38 8.4 NNW 32 46 17 25 1015.1 1011.1 0.0
14/08:00am 23.5 17.6 9.1 40 8.1 NNW 30 37 16 20 1015.1 1011.1 0.0
14/07:30am 22.7 19.1 9.8 44 7.3 N 19 24 10 13 1014.9 1010.9 0.0
14/07:00am 20.4 17.6 9.9 51 5.9 N 15 19 8 10 1014.8 1010.8 0.0
14/06:30am 19.1 15.7 9.0 52 5.5 N 17 20 9 11 1014.3 1010.3 0.0
14/06:00am 17.7 14.5 8.6 55 4.9 N 15 19 8 10 1014.1 1010.1 0.0
14/05:30am 17.9 14.3 8.2 53 5.2 N 17 20 9 11 1013.9 1009.9 0.0
14/05:00am 18.2 14.6 8.5 53 5.3 N 17 22 9 12 1013.8 1009.8 0.0
14/04:30am 18.8 14.9 8.7 52 5.5 NNW 19 22 10 12 1013.6 1009.5 0.0
14/04:00am 18.4 14.9 8.9 54 5.2 NNW 17 19 9 10 1013.6 1009.5 0.0
14/03:30am 19.6 16.1 8.9 50 5.9 NNW 17 20 9 11 1013.7 1009.7 0.0
14/03:00am 19.3 15.9 9.2 52 5.6 NNW 17 19 9 10 1013.8 1009.8 0.0
14/02:30am 19.2 16.3 9.7 54 5.3 NNW 15 17 8 9 1014.1 1010.1 0.0
14/02:00am 18.7 16.1 9.5 55 5.1 NNW 13 17 7 9 1014.3 1010.3 0.0
14/01:30am 17.7 15.0 9.1 57 4.7 NNW 13 13 7 7 1014.5 1010.6 0.0
14/01:00am 19.2 16.8 8.8 51 5.7 N 11 11 6 6 1014.9 1010.9 0.0
14/12:30am 19.3 17.1 9.2 52 5.6 N 11 11 6 6 1015.0 1011.0 0.0
14/12:00am 18.6 17.2 9.4 55 5.1 N 7 9 4 5 1015.2 1011.2 0.0
 
Date/Time
EDT
Temp
°C
App
Temp
°C
Dew
Point
°C
Rel
Hum
%
Delta-T
°C
Wind Press
QNH
hPa
Press
MSL
hPa
Rain since
9am
mm
Dir  Spd
km/h
Gust
km/h
Spd
kts
Gust
kts
13/11:30pm 18.7 17.7 10.3 58 4.7 N 6 7 3 4 1015.3 1011.3 0.0
13/11:00pm 18.3 17.2 10.7 61 4.3 NNW 7 9 4 5 1015.5 1011.6 0.0
13/10:30pm 19.2 17.7 10.5 57 4.9 NNW 9 9 5 5 1015.5 1011.6 0.0
13/10:00pm 19.7 18.5 10.4 55 5.3 N 7 9 4 5 1015.5 1011.6 0.0
13/09:30pm 20.9 21.1 10.4 51 6.0 CALM 0 0 0 0 1015.6 1011.7 0.0
13/09:00pm 22.0 21.0 10.2 47 6.7 N 6 6 3 3 1015.4 1011.4 0.0
13/08:30pm 22.8 21.5 9.9 44 7.3 NNE 7 7 4 4 1015.3 1011.3 0.0
13/08:00pm 24.3 23.0 9.8 40 8.3 N 7 7 4 4 1015.2 1011.2 0.0

Other Formats:

Comma delimited format used in spreadsheet applications
http://www.bom.gov.au/fwo/IDN60801/IDN60801.95726.axf

JavaScript Object Notation format (JSON) in row-major order
http://www.bom.gov.au/fwo/IDN60801/IDN60801.95726.json